createdAt,value
2019-05-23T00:01:43.743Z,36.13
2019-05-23T00:04:26.147Z,38.97
2019-05-23T00:07:00.816Z,29.87
2019-05-23T00:09:34.697Z,38.57
2019-05-23T00:12:31.121Z,39.80
2019-05-23T00:15:27.047Z,33.58
2019-05-23T00:18:01.339Z,29.30
2019-05-23T00:20:35.225Z,30.07
2019-05-23T00:23:08.402Z,34.07
2019-05-23T00:25:45.136Z,33.00
2019-05-23T00:28:20.005Z,36.57
2019-05-23T00:31:00.324Z,42.30
2019-05-23T00:33:37.737Z,39.00
2019-05-23T00:36:13.621Z,34.83
2019-05-23T00:38:46.884Z,34.83
2019-05-23T00:41:21.962Z,38.40
2019-05-23T00:43:55.720Z,38.33
2019-05-23T00:46:29.525Z,39.90
2019-05-23T00:49:02.550Z,43.27
2019-05-23T00:51:36.453Z,40.70
2019-05-23T00:54:11.379Z,48.30
2019-05-23T00:56:46.624Z,41.17
2019-05-23T00:59:26.901Z,39.20
2019-05-23T01:02:00.748Z,42.70
2019-05-23T01:04:34.208Z,42.00
2019-05-23T01:07:07.660Z,43.42
2019-05-23T01:09:42.425Z,48.80
2019-05-23T01:12:17.720Z,43.40
2019-05-23T01:14:51.672Z,36.43
2019-05-23T01:21:04.266Z,38.30
2019-05-23T01:23:41.608Z,35.70
2019-05-23T01:26:15.189Z,36.07
2019-05-23T01:28:47.984Z,38.77
2019-05-23T01:31:24.544Z,35.40
2019-05-23T01:33:56.263Z,34.77
2019-05-23T01:36:29.443Z,44.67
2019-05-23T01:39:03.908Z,38.53
2019-05-23T01:41:36.486Z,40.07
2019-05-23T01:44:10.966Z,35.03
2019-05-23T01:46:45.237Z,35.23
2019-05-23T01:49:17.779Z,41.13
2019-05-23T01:51:50.207Z,37.87
2019-05-23T01:54:23.310Z,41.13
2019-05-23T01:56:55.882Z,40.93
2019-05-23T01:59:28.773Z,42.60
2019-05-23T02:02:02.673Z,49.47
2019-05-23T02:04:35.547Z,45.10
2019-05-23T02:07:09.237Z,46.93
2019-05-23T02:09:42.902Z,48.20
2019-05-23T02:12:16.376Z,52.00
2019-05-23T02:14:54.577Z,60.13
2019-05-23T02:17:28.366Z,56.37
2019-05-23T02:20:02.122Z,58.37
2019-05-23T02:22:37.104Z,65.20
2019-05-23T02:25:14.010Z,68.43
2019-05-23T02:27:47.870Z,75.43
2019-05-23T02:30:34.181Z,82.80
2019-05-23T02:33:09.761Z,72.37
2019-05-23T02:35:44.220Z,66.43
2019-05-23T02:38:42.711Z,65.80
2019-05-23T02:41:40.179Z,84.32
2019-05-23T02:44:17.034Z,63.40
2019-05-23T02:46:56.702Z,73.23
2019-05-23T02:49:34.905Z,73.33
2019-05-23T02:52:48.991Z,64.27
2019-05-23T02:55:34.784Z,65.10
2019-05-23T02:58:28.352Z,64.30
2019-05-23T03:01:44.450Z,56.67
2019-05-23T03:04:25.429Z,60.97
2019-05-23T03:07:02.948Z,55.40
2019-05-23T03:09:59.546Z,75.67
2019-05-23T03:12:35.654Z,80.03
2019-05-23T03:15:13.011Z,78.07
2019-05-23T03:17:56.406Z,78.17
2019-05-23T03:20:29.853Z,79.07
2019-05-23T03:23:28.199Z,79.63
2019-05-23T03:27:00.940Z,79.07
2019-05-23T03:29:35.188Z,76.00
2019-05-23T03:32:23.014Z,89.05
2019-05-23T03:35:03.386Z,85.00
2019-05-23T03:37:38.146Z,76.57
2019-05-23T03:40:11.451Z,83.33
2019-05-23T03:42:45.383Z,78.80
2019-05-23T03:45:25.922Z,112.72
2019-05-23T03:47:59.536Z,107.97
2019-05-23T03:50:33.687Z,84.57
2019-05-23T03:53:10.377Z,90.57
2019-05-23T03:55:47.532Z,91.10
2019-05-23T03:58:22.413Z,99.20
2019-05-23T04:00:56.845Z,104.87
2019-05-23T04:03:29.946Z,105.90
2019-05-23T04:06:02.915Z,90.73
2019-05-23T04:08:36.411Z,89.00
2019-05-23T04:11:09.868Z,87.67
2019-05-23T04:13:43.030Z,120.95
2019-05-23T04:16:17.200Z,106.90
2019-05-23T04:18:49.912Z,96.50
2019-05-23T04:21:26.472Z,101.40
2019-05-23T04:23:59.427Z,106.93
2019-05-23T04:26:32.549Z,89.28
2019-05-23T04:29:05.686Z,83.27
2019-05-23T04:31:38.600Z,94.13
2019-05-23T04:34:11.489Z,82.85
2019-05-23T04:36:44.583Z,77.47
2019-05-23T04:39:17.164Z,73.05
2019-05-23T04:41:50.824Z,81.37
2019-05-23T04:44:24.741Z,67.47
2019-05-23T04:46:57.457Z,66.93
2019-05-23T04:49:30.516Z,68.87
2019-05-23T04:52:04.525Z,63.13
2019-05-23T04:54:37.184Z,69.40
2019-05-23T04:57:14.143Z,66.50
2019-05-23T04:59:47.726Z,74.80
2019-05-23T05:02:26.510Z,66.73
2019-05-23T05:05:00.481Z,78.68
2019-05-23T05:07:33.039Z,70.97
2019-05-23T05:10:07.825Z,67.23
2019-05-23T05:12:43.081Z,67.80
2019-05-23T05:15:18.204Z,70.20
2019-05-23T05:17:50.814Z,74.43
2019-05-23T05:20:23.663Z,61.33
2019-05-23T05:22:57.879Z,74.43
2019-05-23T05:25:31.749Z,77.20
2019-05-23T05:28:04.929Z,77.73
2019-05-23T05:30:37.761Z,76.97
2019-05-23T05:33:10.693Z,87.80
2019-05-23T05:35:52.238Z,86.73
2019-05-23T05:38:28.561Z,76.23
2019-05-23T05:41:02.560Z,72.93
2019-05-23T05:43:35.770Z,79.37
2019-05-23T05:46:08.873Z,78.77
2019-05-23T05:48:43.392Z,76.57
2019-05-23T05:51:17.795Z,65.30
2019-05-23T05:53:54.445Z,61.33
2019-05-23T05:56:30.282Z,65.83
2019-05-23T05:59:03.039Z,65.60
2019-05-23T06:01:36.946Z,62.73
2019-05-23T06:04:10.362Z,53.53
2019-05-23T06:06:56.919Z,53.77
2019-05-23T06:09:31.217Z,54.93
2019-05-23T06:12:06.492Z,56.67
2019-05-23T06:14:39.242Z,52.23
2019-05-23T06:17:16.437Z,54.17
2019-05-23T06:19:51.418Z,57.92
2019-05-23T06:22:27.802Z,57.07
2019-05-23T06:25:04.555Z,60.23
2019-05-23T06:27:39.793Z,56.23
2019-05-23T06:30:18.697Z,54.27
2019-05-23T06:32:53.307Z,61.33
2019-05-23T06:35:28.062Z,57.03
2019-05-23T06:38:01.553Z,55.77
2019-05-23T06:40:34.374Z,60.30
2019-05-23T06:43:12.669Z,54.57
2019-05-23T06:45:46.837Z,53.60
2019-05-23T06:48:20.694Z,55.93
2019-05-23T06:50:53.404Z,54.17
2019-05-23T06:53:26.011Z,60.47
2019-05-23T06:55:59.468Z,52.20
2019-05-23T06:58:32.628Z,50.93
2019-05-23T07:01:08.150Z,54.28
2019-05-23T07:03:43.449Z,48.67
2019-05-23T07:06:24.081Z,51.27
2019-05-23T07:08:57.750Z,49.90
2019-05-23T07:11:32.540Z,50.60
2019-05-23T07:14:06.506Z,50.40
2019-05-23T07:16:40.135Z,45.30
2019-05-23T07:19:14.201Z,44.53
2019-05-23T07:21:47.343Z,45.13
2019-05-23T07:24:20.873Z,41.00
2019-05-23T07:26:54.120Z,41.50
2019-05-23T07:29:26.918Z,53.83
2019-05-23T07:32:00.957Z,43.63
2019-05-23T07:34:34.770Z,48.50
2019-05-23T07:37:07.629Z,39.88
2019-05-23T07:39:42.522Z,36.00
2019-05-23T07:42:16.509Z,34.93
2019-05-23T07:44:52.889Z,35.97
2019-05-23T07:47:26.708Z,33.50
2019-05-23T07:49:59.371Z,31.43
2019-05-23T07:52:32.231Z,32.05
2019-05-23T07:55:11.766Z,31.27
2019-05-23T07:57:44.968Z,29.73
2019-05-23T08:00:25.976Z,33.40
2019-05-23T08:03:04.829Z,31.35
2019-05-23T08:05:38.660Z,28.77
2019-05-23T08:08:12.153Z,27.53
2019-05-23T08:10:45.664Z,29.80
2019-05-23T08:13:18.690Z,31.63
2019-05-23T08:15:59.316Z,27.97
2019-05-23T08:18:32.488Z,26.80
2019-05-23T08:21:06.570Z,27.63
2019-05-23T08:23:40.311Z,28.40
2019-05-23T08:26:17.358Z,28.20
2019-05-23T08:29:12.666Z,26.60
2019-05-23T08:31:59.157Z,26.63
2019-05-23T08:34:41.801Z,22.17
2019-05-23T08:37:21.357Z,21.50
2019-05-23T08:39:54.301Z,22.20
2019-05-23T08:42:26.938Z,21.90
2019-05-23T08:45:00.319Z,18.30
2019-05-23T08:47:35.718Z,21.87
2019-05-23T08:50:11.438Z,17.17
2019-05-23T08:52:46.362Z,17.33
2019-05-23T08:55:23.906Z,18.00
2019-05-23T08:57:58.553Z,18.05
2019-05-23T09:00:32.916Z,15.27
2019-05-23T09:03:08.265Z,17.00
2019-05-23T09:05:40.959Z,14.63
2019-05-23T09:08:17.444Z,14.43
2019-05-23T09:10:51.260Z,14.80
2019-05-23T09:13:24.387Z,12.13
2019-05-23T09:15:59.791Z,15.00
2019-05-23T09:18:32.494Z,14.15
2019-05-23T09:21:10.191Z,12.27
2019-05-23T09:23:42.772Z,11.07
2019-05-23T09:26:17.643Z,10.00
2019-05-23T09:28:51.208Z,9.27
2019-05-23T09:31:26.771Z,8.50
2019-05-23T09:34:00.458Z,9.53
2019-05-23T09:36:33.651Z,10.27
2019-05-23T09:39:15.906Z,9.77
2019-05-23T09:41:48.745Z,8.57
2019-05-23T09:44:24.732Z,9.57
2019-05-23T09:46:57.677Z,8.47
2019-05-23T09:49:31.369Z,9.37
2019-05-23T09:52:07.718Z,9.20
2019-05-23T09:54:42.881Z,8.67
2019-05-23T09:57:16.582Z,8.33
2019-05-23T09:59:50.195Z,12.02
2019-05-23T10:02:33.196Z,11.57
2019-05-23T10:05:17.488Z,9.27
2019-05-23T10:07:55.868Z,11.73
2019-05-23T10:10:29.595Z,7.80
2019-05-23T10:13:04.979Z,11.10
2019-05-23T10:15:45.479Z,11.10
2019-05-23T10:18:22.941Z,8.53
2019-05-23T10:20:56.299Z,12.40
2019-05-23T10:23:29.401Z,14.45
2019-05-23T10:26:03.013Z,14.50
2019-05-23T10:28:37.386Z,13.83
2019-05-23T10:31:11.437Z,12.27
2019-05-23T10:33:46.820Z,11.43
2019-05-23T10:36:23.559Z,17.27
2019-05-23T10:38:57.366Z,14.17
2019-05-23T10:41:35.194Z,10.87
2019-05-23T10:44:14.113Z,13.23
2019-05-23T10:46:53.722Z,12.70
2019-05-23T10:49:36.028Z,13.48
2019-05-23T10:52:13.008Z,15.50
2019-05-23T10:54:46.025Z,15.40
2019-05-23T10:57:19.165Z,14.77
2019-05-23T10:59:54.504Z,14.67
2019-05-23T11:02:47.535Z,13.73
2019-05-23T11:05:25.974Z,14.40
2019-05-23T11:08:03.684Z,16.20
2019-05-23T11:10:38.669Z,15.27
2019-05-23T11:13:11.705Z,14.87
2019-05-23T11:15:44.702Z,18.50
2019-05-23T11:18:21.386Z,16.17
2019-05-23T11:20:54.711Z,13.70
2019-05-23T11:23:39.730Z,12.90
2019-05-23T11:26:15.764Z,13.67
2019-05-23T11:28:51.488Z,13.23
2019-05-23T11:31:25.855Z,13.47
2019-05-23T11:34:01.058Z,11.60
2019-05-23T11:36:36.875Z,14.93
2019-05-23T11:39:10.774Z,12.83
2019-05-23T11:41:46.277Z,12.40
2019-05-23T11:44:20.880Z,13.17
2019-05-23T11:46:53.817Z,12.03
2019-05-23T11:49:28.966Z,10.80
2019-05-23T11:52:01.646Z,10.33
2019-05-23T11:54:34.991Z,10.52
2019-05-23T11:57:23.081Z,10.77
2019-05-23T11:59:56.560Z,11.30
2019-05-23T12:02:41.055Z,9.63
2019-05-23T12:05:18.815Z,12.00
2019-05-23T12:08:01.548Z,11.50
2019-05-23T12:10:35.056Z,10.93
2019-05-23T12:13:09.241Z,12.90
2019-05-23T12:15:46.810Z,11.97
2019-05-23T12:18:20.400Z,10.00
2019-05-23T12:20:54.302Z,10.80
2019-05-23T12:23:27.920Z,11.80
2019-05-23T12:26:01.711Z,10.40
2019-05-23T12:28:36.394Z,11.37
2019-05-23T12:31:09.600Z,9.77
2019-05-23T12:33:42.844Z,9.00
2019-05-23T12:36:15.736Z,9.80
2019-05-23T12:38:48.586Z,10.27
2019-05-23T12:41:21.848Z,11.50
2019-05-23T12:43:54.551Z,9.77
2019-05-23T12:46:29.339Z,9.67
2019-05-23T12:49:18.297Z,11.73
2019-05-23T12:51:53.133Z,13.10
2019-05-23T12:54:31.569Z,8.90
2019-05-23T12:57:06.552Z,8.87
2019-05-23T12:59:39.234Z,7.83
2019-05-23T13:02:20.751Z,8.30
2019-05-23T13:04:55.121Z,10.27
2019-05-23T13:07:36.231Z,9.07
2019-05-23T13:10:11.045Z,6.20
2019-05-23T13:12:45.593Z,6.93
2019-05-23T13:15:18.242Z,6.83
2019-05-23T13:17:51.547Z,8.43
2019-05-23T13:20:25.224Z,7.00
2019-05-23T13:23:02.257Z,6.50
2019-05-23T13:25:37.779Z,6.70
2019-05-23T13:28:19.250Z,5.63
2019-05-23T13:30:55.608Z,5.23
2019-05-23T13:33:29.488Z,4.87
2019-05-23T13:36:05.559Z,5.73
2019-05-23T13:38:39.001Z,7.03
2019-05-23T13:41:13.448Z,4.30
2019-05-23T13:43:47.168Z,5.10
2019-05-23T13:46:22.471Z,4.27
2019-05-23T13:48:57.363Z,4.37
2019-05-23T13:51:30.657Z,4.60
2019-05-23T13:54:06.301Z,4.53
2019-05-23T13:56:39.375Z,4.47
2019-05-23T13:59:12.255Z,3.50
2019-05-23T14:01:45.062Z,5.17
2019-05-23T14:04:20.229Z,5.83
2019-05-23T14:06:54.762Z,4.17
2019-05-23T14:09:34.770Z,5.27
2019-05-23T14:12:24.729Z,4.37
2019-05-23T14:15:06.912Z,4.47
2019-05-23T14:17:42.814Z,3.80
2019-05-23T14:20:20.290Z,5.43
2019-05-23T14:23:01.620Z,2.60
2019-05-23T14:25:35.693Z,3.37
2019-05-23T14:28:09.971Z,4.33
2019-05-23T14:31:02.504Z,4.03
2019-05-23T14:33:55.293Z,3.07
2019-05-23T14:36:36.859Z,4.07
2019-05-23T14:39:27.418Z,2.73
2019-05-23T14:42:11.183Z,2.70
2019-05-23T14:44:46.517Z,3.77
2019-05-23T14:47:38.891Z,3.43
2019-05-23T14:50:20.610Z,6.50
2019-05-23T14:53:01.867Z,4.23
2019-05-23T14:55:38.937Z,3.97
2019-05-23T14:58:13.702Z,3.70
2019-05-23T15:00:49.425Z,6.57
2019-05-23T15:03:23.832Z,4.70
2019-05-23T15:05:59.049Z,5.43
2019-05-23T15:08:58.665Z,4.33
2019-05-23T15:11:48.751Z,4.50
2019-05-23T15:14:32.705Z,4.78
2019-05-23T15:17:07.154Z,2.57
2019-05-23T15:19:45.366Z,3.00
2019-05-23T15:22:19.048Z,5.13
2019-05-23T15:24:52.746Z,4.10
2019-05-23T15:27:28.666Z,6.97
2019-05-23T15:30:04.737Z,3.30
2019-05-23T15:32:38.851Z,3.20
2019-05-23T15:35:11.911Z,3.20
2019-05-23T15:37:45.725Z,4.03
2019-05-23T15:40:23.594Z,6.05
2019-05-23T15:42:57.237Z,3.30
2019-05-23T15:45:31.190Z,3.23
2019-05-23T15:48:05.590Z,4.67
2019-05-23T15:50:47.305Z,2.80
2019-05-23T15:53:32.992Z,2.70
2019-05-23T15:56:27.322Z,3.43
2019-05-23T15:59:18.802Z,3.33
2019-05-23T16:02:03.895Z,8.43
2019-05-23T16:04:42.180Z,4.50
2019-05-23T16:07:16.295Z,4.50
2019-05-23T16:09:53.015Z,2.07
2019-05-23T16:12:28.628Z,3.53
2019-05-23T16:15:07.233Z,5.37
2019-05-23T16:17:50.758Z,2.90
2019-05-23T16:20:23.979Z,2.93
2019-05-23T16:22:56.686Z,5.57
2019-05-23T16:25:30.867Z,3.43
2019-05-23T16:28:04.653Z,2.70
2019-05-23T16:30:39.560Z,2.60
2019-05-23T16:33:13.149Z,4.65
2019-05-23T16:35:46.963Z,5.97
2019-05-23T16:38:21.270Z,2.50
2019-05-23T16:40:54.033Z,4.37
2019-05-23T16:43:29.468Z,2.10
2019-05-23T16:46:06.984Z,4.73
2019-05-23T16:48:40.196Z,3.55
2019-05-23T16:51:13.059Z,3.20
2019-05-23T16:53:46.530Z,2.00
2019-05-23T16:56:30.951Z,4.80
2019-05-23T16:59:20.154Z,2.20
2019-05-23T17:02:18.740Z,2.63
2019-05-23T17:05:09.767Z,3.40
2019-05-23T17:07:57.628Z,3.47
2019-05-23T17:10:44.913Z,2.77
2019-05-23T17:13:30.949Z,2.60
2019-05-23T17:16:23.048Z,3.35
2019-05-23T17:19:05.143Z,2.87
2019-05-23T17:21:51.359Z,2.57
2019-05-23T17:24:30.833Z,1.70
2019-05-23T17:27:15.879Z,4.80
2019-05-23T17:29:52.862Z,4.80
2019-05-23T17:32:31.347Z,2.83
2019-05-23T17:35:06.197Z,2.73
2019-05-23T17:37:39.066Z,2.80
2019-05-23T17:40:24.154Z,2.70
2019-05-23T17:42:59.063Z,1.70
2019-05-23T17:45:35.474Z,1.83
2019-05-23T17:48:10.771Z,3.03
2019-05-23T17:50:44.031Z,4.20
2019-05-23T17:53:20.728Z,3.23
2019-05-23T17:55:58.878Z,1.50
2019-05-23T17:58:32.451Z,2.77
2019-05-23T18:01:08.128Z,1.97
2019-05-23T18:03:42.257Z,2.20
2019-05-23T18:06:15.290Z,5.70
2019-05-23T18:08:48.974Z,3.43
2019-05-23T18:11:22.625Z,8.37
2019-05-23T18:13:56.336Z,3.40
2019-05-23T18:16:31.224Z,2.57
2019-05-23T18:19:07.340Z,5.60
2019-05-23T18:21:41.821Z,4.97
2019-05-23T18:24:16.074Z,3.27
2019-05-23T18:26:50.913Z,1.60
2019-05-23T18:29:27.386Z,1.53
2019-05-23T18:32:07.326Z,1.80
2019-05-23T18:34:41.858Z,3.03
2019-05-23T18:37:21.636Z,2.47
2019-05-23T18:40:12.312Z,4.10
2019-05-23T18:42:48.287Z,3.03
2019-05-23T18:45:23.853Z,3.87
2019-05-23T18:48:01.101Z,5.73
2019-05-23T18:50:37.754Z,3.40
2019-05-23T18:53:15.143Z,2.13
2019-05-23T18:55:49.459Z,4.10
2019-05-23T18:58:25.008Z,3.03
2019-05-23T19:01:24.468Z,3.20
2019-05-23T19:03:57.762Z,5.17
2019-05-23T19:06:34.519Z,2.83
2019-05-23T19:09:20.783Z,4.33
2019-05-23T19:11:58.548Z,2.47
2019-05-23T19:14:35.403Z,3.97
2019-05-23T19:17:13.187Z,4.57
2019-05-23T19:19:50.070Z,2.57
2019-05-23T19:22:24.594Z,3.30
2019-05-23T19:24:58.176Z,3.17
2019-05-23T19:27:31.017Z,5.40
2019-05-23T19:30:08.385Z,3.70
2019-05-23T19:32:41.097Z,2.37
2019-05-23T19:35:16.298Z,2.13
2019-05-23T19:37:50.444Z,3.07
2019-05-23T19:40:24.859Z,4.37
2019-05-23T19:42:58.952Z,2.57
2019-05-23T19:45:32.196Z,2.27
2019-05-23T19:48:07.330Z,3.08
2019-05-23T19:50:41.567Z,3.67
2019-05-23T19:53:14.697Z,2.23
2019-05-23T19:55:48.820Z,4.33
2019-05-23T19:58:25.016Z,5.47
2019-05-23T20:00:59.823Z,4.47
2019-05-23T20:03:34.014Z,5.00
2019-05-23T20:06:11.018Z,3.90
2019-05-23T20:08:44.994Z,5.27
2019-05-23T20:11:22.111Z,4.90
2019-05-23T20:13:56.363Z,3.53
2019-05-23T20:16:31.526Z,6.33
2019-05-23T20:19:06.476Z,4.63
2019-05-23T20:21:41.740Z,6.33
2019-05-23T20:24:21.976Z,4.60
2019-05-23T20:26:54.970Z,4.97
2019-05-23T20:29:30.823Z,5.10
2019-05-23T20:32:11.494Z,6.07
2019-05-23T20:34:45.932Z,4.60
2019-05-23T20:37:22.447Z,5.03
2019-05-23T20:40:16.685Z,3.00
2019-05-23T20:42:52.667Z,3.37
2019-05-23T20:45:27.260Z,4.77
2019-05-23T20:48:01.443Z,4.87
2019-05-23T20:50:34.181Z,2.77
2019-05-23T20:53:08.252Z,5.43
2019-05-23T20:55:41.292Z,7.67
2019-05-23T20:58:15.424Z,4.03
2019-05-23T21:01:00.857Z,3.67
2019-05-23T21:03:35.903Z,2.87
2019-05-23T21:06:13.671Z,3.53
2019-05-23T21:08:47.947Z,3.50
2019-05-23T21:11:20.983Z,4.10
2019-05-23T21:13:54.367Z,5.77
2019-05-23T21:16:27.193Z,5.00
2019-05-23T21:19:03.698Z,3.30
2019-05-23T21:21:38.351Z,3.20
2019-05-23T21:24:14.053Z,2.57
2019-05-23T21:26:49.481Z,4.37
2019-05-23T21:29:23.146Z,3.83
2019-05-23T21:31:57.225Z,4.20
2019-05-23T21:34:31.289Z,3.83
2019-05-23T21:37:04.427Z,3.60
2019-05-23T21:39:38.447Z,5.03
2019-05-23T21:42:11.166Z,4.40
2019-05-23T21:44:44.216Z,7.13
2019-05-23T21:47:17.849Z,4.32
2019-05-23T21:49:51.210Z,3.97
2019-05-23T21:52:23.973Z,4.82
2019-05-23T21:54:56.596Z,4.05
2019-05-23T21:57:30.020Z,3.90
2019-05-23T22:00:03.984Z,7.27
2019-05-23T22:02:36.664Z,5.17
2019-05-23T22:05:13.276Z,4.93
2019-05-23T22:07:46.071Z,5.03
2019-05-23T22:10:18.894Z,4.03
2019-05-23T22:13:03.985Z,4.50
2019-05-23T22:15:38.173Z,4.20
2019-05-23T22:18:11.017Z,4.45
2019-05-23T22:20:44.352Z,3.97
2019-05-23T22:23:17.056Z,5.25
2019-05-23T22:25:50.972Z,7.37
2019-05-23T22:28:23.836Z,6.47
2019-05-23T22:30:58.935Z,4.37
2019-05-23T22:33:43.342Z,5.23
2019-05-23T22:36:18.027Z,4.23
2019-05-23T22:38:52.415Z,4.13
2019-05-23T22:41:27.320Z,4.70
2019-05-23T22:44:00.136Z,5.83
2019-05-23T22:46:34.168Z,5.83
2019-05-23T22:49:07.237Z,5.87
2019-05-23T22:51:39.839Z,5.47
2019-05-23T22:54:12.824Z,4.03
2019-05-23T22:56:46.029Z,6.20
2019-05-23T22:59:19.112Z,6.13
2019-05-23T23:01:52.194Z,4.32
2019-05-23T23:04:25.637Z,4.70
2019-05-23T23:06:58.294Z,3.97
2019-05-23T23:09:31.103Z,5.07
2019-05-23T23:12:05.671Z,3.90
2019-05-23T23:14:38.350Z,4.10
2019-05-23T23:17:15.167Z,4.17
2019-05-23T23:19:49.842Z,4.50
2019-05-23T23:22:24.010Z,4.93
2019-05-23T23:24:56.531Z,4.07
2019-05-23T23:27:30.185Z,6.03
2019-05-23T23:30:06.353Z,5.95
2019-05-23T23:32:39.127Z,6.55
2019-05-23T23:35:12.158Z,4.57
2019-05-23T23:37:44.910Z,7.93
2019-05-23T23:40:19.443Z,4.12
2019-05-23T23:42:52.042Z,5.17
2019-05-23T23:45:30.499Z,4.87
2019-05-23T23:48:09.534Z,5.87
2019-05-23T23:50:48.213Z,5.00
2019-05-23T23:53:27.453Z,5.43
2019-05-23T23:56:05.895Z,6.17
2019-05-23T23:58:38.398Z,5.17
